sensor_id;sensor_type;location;lat;lon;timestamp;temperature;humidity
32753;DHT22;19121;52.428;10.816;2023-05-18T00:01:00;20.80;38.80
32753;DHT22;19121;52.428;10.816;2023-05-18T00:03:28;20.80;38.80
32753;DHT22;19121;52.428;10.816;2023-05-18T00:05:54;20.80;38.80
32753;DHT22;19121;52.428;10.816;2023-05-18T00:08:22;20.80;38.90
32753;DHT22;19121;52.428;10.816;2023-05-18T00:10:47;20.80;38.80
32753;DHT22;19121;52.428;10.816;2023-05-18T00:13:12;20.70;38.80
32753;DHT22;19121;52.428;10.816;2023-05-18T00:15:38;20.80;39.40
32753;DHT22;19121;52.428;10.816;2023-05-18T00:18:03;20.70;38.80
32753;DHT22;19121;52.428;10.816;2023-05-18T00:20:29;20.80;38.80
32753;DHT22;19121;52.428;10.816;2023-05-18T00:22:54;20.70;38.80
32753;DHT22;19121;52.428;10.816;2023-05-18T00:25:20;20.80;38.80
32753;DHT22;19121;52.428;10.816;2023-05-18T00:27:45;20.80;38.80
32753;DHT22;19121;52.428;10.816;2023-05-18T00:30:13;20.70;38.80
32753;DHT22;19121;52.428;10.816;2023-05-18T00:32:38;20.70;38.80
32753;DHT22;19121;52.428;10.816;2023-05-18T00:35:04;20.70;38.80
32753;DHT22;19121;52.428;10.816;2023-05-18T00:37:30;20.70;38.80
32753;DHT22;19121;52.428;10.816;2023-05-18T00:39:55;20.70;38.80
32753;DHT22;19121;52.428;10.816;2023-05-18T00:42:21;20.70;38.80
32753;DHT22;19121;52.428;10.816;2023-05-18T00:44:46;20.70;38.80
32753;DHT22;19121;52.428;10.816;2023-05-18T00:47:12;20.70;38.80
32753;DHT22;19121;52.428;10.816;2023-05-18T00:49:38;20.70;38.80
32753;DHT22;19121;52.428;10.816;2023-05-18T00:52:03;20.70;38.80
32753;DHT22;19121;52.428;10.816;2023-05-18T00:54:29;20.70;38.80
32753;DHT22;19121;52.428;10.816;2023-05-18T00:56:57;20.70;38.80
32753;DHT22;19121;52.428;10.816;2023-05-18T00:59:27;20.70;38.80
32753;DHT22;19121;52.428;10.816;2023-05-18T01:01:52;20.60;38.80
32753;DHT22;19121;52.428;10.816;2023-05-18T01:04:17;20.70;38.80
32753;DHT22;19121;52.428;10.816;2023-05-18T01:06:45;20.70;38.80
32753;DHT22;19121;52.428;10.816;2023-05-18T01:09:11;20.60;38.70
32753;DHT22;19121;52.428;10.816;2023-05-18T01:14:35;20.60;38.70
32753;DHT22;19121;52.428;10.816;2023-05-18T01:22:08;20.60;38.70
32753;DHT22;19121;52.428;10.816;2023-05-18T01:24:40;20.60;38.80
32753;DHT22;19121;52.428;10.816;2023-05-18T01:27:07;20.60;38.80
32753;DHT22;19121;52.428;10.816;2023-05-18T01:29:33;20.60;38.70
32753;DHT22;19121;52.428;10.816;2023-05-18T01:31:59;20.60;38.80
32753;DHT22;19121;52.428;10.816;2023-05-18T01:34:25;20.60;38.70
32753;DHT22;19121;52.428;10.816;2023-05-18T01:36:50;20.60;38.70
32753;DHT22;19121;52.428;10.816;2023-05-18T01:39:16;20.50;38.70
32753;DHT22;19121;52.428;10.816;2023-05-18T01:41:44;20.50;38.70
32753;DHT22;19121;52.428;10.816;2023-05-18T01:46:50;20.50;38.70
32753;DHT22;19121;52.428;10.816;2023-05-18T01:51:46;20.50;38.80
32753;DHT22;19121;52.428;10.816;2023-05-18T01:54:15;20.50;38.70
32753;DHT22;19121;52.428;10.816;2023-05-18T01:56:41;20.50;38.80
32753;DHT22;19121;52.428;10.816;2023-05-18T01:59:07;20.50;38.70
32753;DHT22;19121;52.428;10.816;2023-05-18T02:01:34;20.50;38.80
32753;DHT22;19121;52.428;10.816;2023-05-18T02:03:59;20.50;38.80
32753;DHT22;19121;52.428;10.816;2023-05-18T02:06:25;20.50;38.70
32753;DHT22;19121;52.428;10.816;2023-05-18T02:08:50;20.50;38.70
32753;DHT22;19121;52.428;10.816;2023-05-18T02:11:16;20.50;38.80
32753;DHT22;19121;52.428;10.816;2023-05-18T02:13:42;20.50;38.80
32753;DHT22;19121;52.428;10.816;2023-05-18T02:16:07;20.40;38.80
32753;DHT22;19121;52.428;10.816;2023-05-18T02:18:32;20.40;39.00
32753;DHT22;19121;52.428;10.816;2023-05-18T02:21:00;20.40;39.10
32753;DHT22;19121;52.428;10.816;2023-05-18T02:23:26;20.40;39.10
32753;DHT22;19121;52.428;10.816;2023-05-18T02:25:51;20.40;39.10
32753;DHT22;19121;52.428;10.816;2023-05-18T02:28:20;20.40;39.10
32753;DHT22;19121;52.428;10.816;2023-05-18T02:30:45;20.40;39.10
32753;DHT22;19121;52.428;10.816;2023-05-18T02:33:11;20.40;39.10
32753;DHT22;19121;52.428;10.816;2023-05-18T02:35:37;20.40;39.10
32753;DHT22;19121;52.428;10.816;2023-05-18T02:38:02;20.40;39.10
32753;DHT22;19121;52.428;10.816;2023-05-18T02:40:28;20.40;39.10
32753;DHT22;19121;52.428;10.816;2023-05-18T02:42:53;20.40;39.10
32753;DHT22;19121;52.428;10.816;2023-05-18T02:45:19;20.40;39.10
32753;DHT22;19121;52.428;10.816;2023-05-18T02:47:45;20.40;39.00
32753;DHT22;19121;52.428;10.816;2023-05-18T02:50:11;20.40;38.90
32753;DHT22;19121;52.428;10.816;2023-05-18T02:52:36;20.40;38.80
32753;DHT22;19121;52.428;10.816;2023-05-18T02:55:03;20.40;39.40
32753;DHT22;19121;52.428;10.816;2023-05-18T02:57:28;20.40;38.80
32753;DHT22;19121;52.428;10.816;2023-05-18T02:59:54;20.40;38.70
32753;DHT22;19121;52.428;10.816;2023-05-18T03:02:19;20.40;38.70
32753;DHT22;19121;52.428;10.816;2023-05-18T03:04:47;20.30;38.70
32753;DHT22;19121;52.428;10.816;2023-05-18T03:07:19;20.30;38.70
32753;DHT22;19121;52.428;10.816;2023-05-18T03:09:44;20.30;38.70
32753;DHT22;19121;52.428;10.816;2023-05-18T03:12:10;20.30;38.70
32753;DHT22;19121;52.428;10.816;2023-05-18T03:14:35;20.30;38.70
32753;DHT22;19121;52.428;10.816;2023-05-18T03:17:01;20.30;38.80
32753;DHT22;19121;52.428;10.816;2023-05-18T03:19:32;20.30;38.70
32753;DHT22;19121;52.428;10.816;2023-05-18T03:21:59;20.30;38.80
32753;DHT22;19121;52.428;10.816;2023-05-18T03:24:24;20.30;38.80
32753;DHT22;19121;52.428;10.816;2023-05-18T03:26:51;20.30;39.40
32753;DHT22;19121;52.428;10.816;2023-05-18T03:29:19;20.30;38.90
32753;DHT22;19121;52.428;10.816;2023-05-18T03:31:44;20.30;39.00
32753;DHT22;19121;52.428;10.816;2023-05-18T03:34:10;20.20;39.00
32753;DHT22;19121;52.428;10.816;2023-05-18T03:36:35;20.30;39.20
32753;DHT22;19121;52.428;10.816;2023-05-18T03:39:03;20.30;39.20
32753;DHT22;19121;52.428;10.816;2023-05-18T03:41:30;20.30;39.30
32753;DHT22;19121;52.428;10.816;2023-05-18T03:43:56;20.30;39.30
32753;DHT22;19121;52.428;10.816;2023-05-18T03:46:21;20.30;39.20
32753;DHT22;19121;52.428;10.816;2023-05-18T03:48:47;20.30;39.30
32753;DHT22;19121;52.428;10.816;2023-05-18T03:51:12;20.30;39.20
32753;DHT22;19121;52.428;10.816;2023-05-18T03:53:37;20.20;39.20
32753;DHT22;19121;52.428;10.816;2023-05-18T03:56:03;20.20;39.20
32753;DHT22;19121;52.428;10.816;2023-05-18T03:58:29;20.30;39.90
32753;DHT22;19121;52.428;10.816;2023-05-18T04:00:54;20.30;39.20
32753;DHT22;19121;52.428;10.816;2023-05-18T04:03:20;20.20;39.20
32753;DHT22;19121;52.428;10.816;2023-05-18T04:05:48;20.30;39.20
32753;DHT22;19121;52.428;10.816;2023-05-18T04:08:14;20.20;39.00
32753;DHT22;19121;52.428;10.816;2023-05-18T04:10:40;20.20;39.00
32753;DHT22;19121;52.428;10.816;2023-05-18T04:13:06;20.20;39.00
32753;DHT22;19121;52.428;10.816;2023-05-18T04:15:31;20.20;38.90
32753;DHT22;19121;52.428;10.816;2023-05-18T04:17:57;20.20;38.90
32753;DHT22;19121;52.428;10.816;2023-05-18T04:20:23;20.20;38.80
32753;DHT22;19121;52.428;10.816;2023-05-18T04:22:52;20.20;38.80
32753;DHT22;19121;52.428;10.816;2023-05-18T04:25:18;20.20;38.80
32753;DHT22;19121;52.428;10.816;2023-05-18T04:27:44;20.20;38.80
32753;DHT22;19121;52.428;10.816;2023-05-18T04:30:10;20.20;38.80
32753;DHT22;19121;52.428;10.816;2023-05-18T04:32:36;20.20;39.40
32753;DHT22;19121;52.428;10.816;2023-05-18T04:35:03;20.20;38.80
32753;DHT22;19121;52.428;10.816;2023-05-18T04:37:29;20.20;38.80
32753;DHT22;19121;52.428;10.816;2023-05-18T04:39:54;20.20;38.80
32753;DHT22;19121;52.428;10.816;2023-05-18T04:42:20;20.20;38.80
32753;DHT22;19121;52.428;10.816;2023-05-18T04:44:46;20.20;38.80
32753;DHT22;19121;52.428;10.816;2023-05-18T04:47:13;20.20;39.40
32753;DHT22;19121;52.428;10.816;2023-05-18T04:49:38;20.20;38.80
32753;DHT22;19121;52.428;10.816;2023-05-18T04:52:03;20.30;38.80
32753;DHT22;19121;52.428;10.816;2023-05-18T04:54:32;20.20;38.80
32753;DHT22;19121;52.428;10.816;2023-05-18T04:56:57;20.30;38.90
32753;DHT22;19121;52.428;10.816;2023-05-18T04:59:23;20.20;38.90
32753;DHT22;19121;52.428;10.816;2023-05-18T05:01:51;20.30;38.90
32753;DHT22;19121;52.428;10.816;2023-05-18T05:04:16;20.20;38.80
32753;DHT22;19121;52.428;10.816;2023-05-18T05:06:42;20.30;38.90
32753;DHT22;19121;52.428;10.816;2023-05-18T05:09:07;20.30;38.80
32753;DHT22;19121;52.428;10.816;2023-05-18T05:11:32;20.20;38.70
32753;DHT22;19121;52.428;10.816;2023-05-18T05:13:59;20.20;38.70
32753;DHT22;19121;52.428;10.816;2023-05-18T05:16:25;20.30;38.80
32753;DHT22;19121;52.428;10.816;2023-05-18T05:18:50;20.30;38.70
32753;DHT22;19121;52.428;10.816;2023-05-18T05:21:16;20.30;38.70
32753;DHT22;19121;52.428;10.816;2023-05-18T05:23:41;20.30;38.70
32753;DHT22;19121;52.428;10.816;2023-05-18T05:26:07;20.40;38.70
32753;DHT22;19121;52.428;10.816;2023-05-18T05:28:32;20.30;38.60
32753;DHT22;19121;52.428;10.816;2023-05-18T05:30:57;20.40;38.60
32753;DHT22;19121;52.428;10.816;2023-05-18T05:33:23;20.40;38.60
32753;DHT22;19121;52.428;10.816;2023-05-18T05:35:48;20.40;38.50
32753;DHT22;19121;52.428;10.816;2023-05-18T05:38:14;20.40;38.50
32753;DHT22;19121;52.428;10.816;2023-05-18T05:40:39;20.40;39.10
32753;DHT22;19121;52.428;10.816;2023-05-18T05:43:05;20.40;38.50
32753;DHT22;19121;52.428;10.816;2023-05-18T05:45:30;20.50;38.50
32753;DHT22;19121;52.428;10.816;2023-05-18T05:47:56;20.50;38.50
32753;DHT22;19121;52.428;10.816;2023-05-18T05:50:21;20.50;38.50
32753;DHT22;19121;52.428;10.816;2023-05-18T05:52:46;20.50;38.40
32753;DHT22;19121;52.428;10.816;2023-05-18T05:55:12;20.60;38.50
32753;DHT22;19121;52.428;10.816;2023-05-18T05:57:37;20.60;38.40
32753;DHT22;19121;52.428;10.816;2023-05-18T06:00:07;20.60;38.40
32753;DHT22;19121;52.428;10.816;2023-05-18T06:02:34;20.70;38.40
32753;DHT22;19121;52.428;10.816;2023-05-18T06:05:00;20.70;38.30
32753;DHT22;19121;52.428;10.816;2023-05-18T06:07:25;20.70;38.30
32753;DHT22;19121;52.428;10.816;2023-05-18T06:09:51;20.80;38.30
32753;DHT22;19121;52.428;10.816;2023-05-18T06:12:16;20.80;38.20
32753;DHT22;19121;52.428;10.816;2023-05-18T06:14:42;20.80;38.20
32753;DHT22;19121;52.428;10.816;2023-05-18T06:17:07;20.80;38.20
32753;DHT22;19121;52.428;10.816;2023-05-18T06:19:32;20.90;38.20
32753;DHT22;19121;52.428;10.816;2023-05-18T06:21:58;20.90;38.10
32753;DHT22;19121;52.428;10.816;2023-05-18T06:24:23;20.90;38.10
32753;DHT22;19121;52.428;10.816;2023-05-18T06:26:49;20.90;38.10
32753;DHT22;19121;52.428;10.816;2023-05-18T06:29:15;21.00;38.10
32753;DHT22;19121;52.428;10.816;2023-05-18T06:31:40;21.00;38.00
32753;DHT22;19121;52.428;10.816;2023-05-18T06:34:05;21.00;37.90
32753;DHT22;19121;52.428;10.816;2023-05-18T06:36:31;21.10;37.90
32753;DHT22;19121;52.428;10.816;2023-05-18T06:38:57;21.10;38.40
32753;DHT22;19121;52.428;10.816;2023-05-18T06:41:23;21.20;37.80
32753;DHT22;19121;52.428;10.816;2023-05-18T06:43:48;21.20;37.70
32753;DHT22;19121;52.428;10.816;2023-05-18T06:46:21;21.20;37.70
32753;DHT22;19121;52.428;10.816;2023-05-18T06:48:47;21.30;37.70
32753;DHT22;19121;52.428;10.816;2023-05-18T06:51:12;21.30;37.60
32753;DHT22;19121;52.428;10.816;2023-05-18T06:53:40;21.30;37.60
32753;DHT22;19121;52.428;10.816;2023-05-18T06:56:06;21.40;37.60
32753;DHT22;19121;52.428;10.816;2023-05-18T06:58:31;21.40;37.60
32753;DHT22;19121;52.428;10.816;2023-05-18T07:00:57;21.40;37.60
32753;DHT22;19121;52.428;10.816;2023-05-18T07:03:22;21.40;37.50
32753;DHT22;19121;52.428;10.816;2023-05-18T07:05:47;21.40;37.60
32753;DHT22;19121;52.428;10.816;2023-05-18T07:08:13;21.40;37.50
32753;DHT22;19121;52.428;10.816;2023-05-18T07:10:38;21.50;37.50
32753;DHT22;19121;52.428;10.816;2023-05-18T07:13:04;21.50;37.50
32753;DHT22;19121;52.428;10.816;2023-05-18T07:15:30;21.50;37.50
32753;DHT22;19121;52.428;10.816;2023-05-18T07:17:55;21.60;37.50
32753;DHT22;19121;52.428;10.816;2023-05-18T07:20:21;21.60;37.40
32753;DHT22;19121;52.428;10.816;2023-05-18T07:22:46;21.60;37.40
32753;DHT22;19121;52.428;10.816;2023-05-18T07:25:12;21.60;37.40
32753;DHT22;19121;52.428;10.816;2023-05-18T07:27:37;21.70;37.50
32753;DHT22;19121;52.428;10.816;2023-05-18T07:30:03;21.70;37.40
32753;DHT22;19121;52.428;10.816;2023-05-18T07:32:29;21.70;37.30
32753;DHT22;19121;52.428;10.816;2023-05-18T07:34:54;21.70;37.30
32753;DHT22;19121;52.428;10.816;2023-05-18T07:37:20;21.80;37.30
32753;DHT22;19121;52.428;10.816;2023-05-18T07:39:46;21.80;37.30
32753;DHT22;19121;52.428;10.816;2023-05-18T07:42:11;21.80;37.30
32753;DHT22;19121;52.428;10.816;2023-05-18T07:44:37;21.80;37.20
32753;DHT22;19121;52.428;10.816;2023-05-18T07:47:02;21.90;37.20
32753;DHT22;19121;52.428;10.816;2023-05-18T07:49:28;21.90;37.20
32753;DHT22;19121;52.428;10.816;2023-05-18T07:51:53;21.90;37.20
32753;DHT22;19121;52.428;10.816;2023-05-18T07:54:18;22.00;37.20
32753;DHT22;19121;52.428;10.816;2023-05-18T07:56:44;22.00;37.10
32753;DHT22;19121;52.428;10.816;2023-05-18T07:59:10;22.00;37.10
32753;DHT22;19121;52.428;10.816;2023-05-18T08:01:35;22.10;37.10
32753;DHT22;19121;52.428;10.816;2023-05-18T08:04:02;22.10;37.10
32753;DHT22;19121;52.428;10.816;2023-05-18T08:06:27;22.10;37.00
32753;DHT22;19121;52.428;10.816;2023-05-18T08:08:53;22.20;37.10
32753;DHT22;19121;52.428;10.816;2023-05-18T08:11:21;22.20;37.00
32753;DHT22;19121;52.428;10.816;2023-05-18T08:13:46;22.20;37.00
32753;DHT22;19121;52.428;10.816;2023-05-18T08:16:12;22.30;37.00
32753;DHT22;19121;52.428;10.816;2023-05-18T08:18:37;22.30;37.00
32753;DHT22;19121;52.428;10.816;2023-05-18T08:21:03;22.30;37.00
32753;DHT22;19121;52.428;10.816;2023-05-18T08:23:32;22.30;37.00
32753;DHT22;19121;52.428;10.816;2023-05-18T08:25:58;22.30;37.00
32753;DHT22;19121;52.428;10.816;2023-05-18T08:28:24;22.40;36.90
32753;DHT22;19121;52.428;10.816;2023-05-18T08:30:50;22.40;36.90
32753;DHT22;19121;52.428;10.816;2023-05-18T08:33:15;22.40;36.90
32753;DHT22;19121;52.428;10.816;2023-05-18T08:35:41;22.40;36.90
32753;DHT22;19121;52.428;10.816;2023-05-18T08:38:07;22.40;36.90
32753;DHT22;19121;52.428;10.816;2023-05-18T08:40:36;22.50;37.00
32753;DHT22;19121;52.428;10.816;2023-05-18T08:43:06;22.50;36.90
32753;DHT22;19121;52.428;10.816;2023-05-18T08:45:35;22.50;37.00
32753;DHT22;19121;52.428;10.816;2023-05-18T08:48:04;22.50;37.00
32753;DHT22;19121;52.428;10.816;2023-05-18T08:50:30;22.50;37.00
32753;DHT22;19121;52.428;10.816;2023-05-18T08:52:58;22.50;37.10
32753;DHT22;19121;52.428;10.816;2023-05-18T08:55:24;22.50;37.10
32753;DHT22;19121;52.428;10.816;2023-05-18T08:57:53;22.60;37.10
32753;DHT22;19121;52.428;10.816;2023-05-18T09:00:23;22.60;37.10
32753;DHT22;19121;52.428;10.816;2023-05-18T09:02:49;22.60;37.10
32753;DHT22;19121;52.428;10.816;2023-05-18T09:05:15;22.60;37.10
32753;DHT22;19121;52.428;10.816;2023-05-18T09:07:41;22.60;37.10
32753;DHT22;19121;52.428;10.816;2023-05-18T09:10:10;22.60;37.10
32753;DHT22;19121;52.428;10.816;2023-05-18T09:12:36;22.60;37.10
32753;DHT22;19121;52.428;10.816;2023-05-18T09:15:02;22.60;37.10
32753;DHT22;19121;52.428;10.816;2023-05-18T09:17:28;22.70;37.10
32753;DHT22;19121;52.428;10.816;2023-05-18T09:19:53;22.70;37.00
32753;DHT22;19121;52.428;10.816;2023-05-18T09:22:19;22.70;37.00
32753;DHT22;19121;52.428;10.816;2023-05-18T09:24:44;22.70;37.00
32753;DHT22;19121;52.428;10.816;2023-05-18T09:27:10;22.80;37.10
32753;DHT22;19121;52.428;10.816;2023-05-18T09:29:35;22.80;37.10
32753;DHT22;19121;52.428;10.816;2023-05-18T09:32:02;22.80;37.10
32753;DHT22;19121;52.428;10.816;2023-05-18T09:34:37;22.90;37.10
32753;DHT22;19121;52.428;10.816;2023-05-18T09:37:03;22.80;37.10
32753;DHT22;19121;52.428;10.816;2023-05-18T09:39:29;22.80;37.10
32753;DHT22;19121;52.428;10.816;2023-05-18T09:41:54;22.80;37.10
32753;DHT22;19121;52.428;10.816;2023-05-18T09:44:31;22.90;37.20
32753;DHT22;19121;52.428;10.816;2023-05-18T09:46:57;22.90;37.10
32753;DHT22;19121;52.428;10.816;2023-05-18T09:49:23;22.90;37.20
32753;DHT22;19121;52.428;10.816;2023-05-18T09:51:48;22.90;37.10
32753;DHT22;19121;52.428;10.816;2023-05-18T09:54:14;22.90;37.20
32753;DHT22;19121;52.428;10.816;2023-05-18T09:56:39;22.90;37.10
32753;DHT22;19121;52.428;10.816;2023-05-18T09:59:09;23.00;37.20
32753;DHT22;19121;52.428;10.816;2023-05-18T10:01:34;23.00;37.20
32753;DHT22;19121;52.428;10.816;2023-05-18T10:04:03;23.00;37.20
32753;DHT22;19121;52.428;10.816;2023-05-18T10:06:29;23.00;37.20
32753;DHT22;19121;52.428;10.816;2023-05-18T10:09:00;23.00;37.10
32753;DHT22;19121;52.428;10.816;2023-05-18T10:11:29;23.00;37.10
32753;DHT22;19121;52.428;10.816;2023-05-18T10:13:55;23.00;37.10
32753;DHT22;19121;52.428;10.816;2023-05-18T10:16:22;23.00;37.20
32753;DHT22;19121;52.428;10.816;2023-05-18T10:18:47;23.00;37.10
32753;DHT22;19121;52.428;10.816;2023-05-18T10:21:13;23.00;37.10
32753;DHT22;19121;52.428;10.816;2023-05-18T10:23:40;23.10;37.20
32753;DHT22;19121;52.428;10.816;2023-05-18T10:26:05;23.10;37.10
32753;DHT22;19121;52.428;10.816;2023-05-18T10:28:33;23.10;37.20
32753;DHT22;19121;52.428;10.816;2023-05-18T10:31:00;23.10;37.20
32753;DHT22;19121;52.428;10.816;2023-05-18T10:33:26;23.10;37.20
32753;DHT22;19121;52.428;10.816;2023-05-18T10:35:52;23.10;37.20
32753;DHT22;19121;52.428;10.816;2023-05-18T10:38:19;23.10;37.20
32753;DHT22;19121;52.428;10.816;2023-05-18T10:40:45;23.10;37.20
32753;DHT22;19121;52.428;10.816;2023-05-18T10:43:11;23.10;37.20
32753;DHT22;19121;52.428;10.816;2023-05-18T10:45:36;23.10;37.20
32753;DHT22;19121;52.428;10.816;2023-05-18T10:48:03;23.10;37.30
32753;DHT22;19121;52.428;10.816;2023-05-18T10:50:29;23.10;37.20
32753;DHT22;19121;52.428;10.816;2023-05-18T10:52:55;23.10;37.30
32753;DHT22;19121;52.428;10.816;2023-05-18T10:55:23;23.10;37.30
32753;DHT22;19121;52.428;10.816;2023-05-18T10:57:50;23.10;37.30
32753;DHT22;19121;52.428;10.816;2023-05-18T11:00:16;23.10;37.30
32753;DHT22;19121;52.428;10.816;2023-05-18T11:02:42;23.10;37.40
32753;DHT22;19121;52.428;10.816;2023-05-18T11:05:09;23.10;37.40
32753;DHT22;19121;52.428;10.816;2023-05-18T11:07:35;23.10;37.40
32753;DHT22;19121;52.428;10.816;2023-05-18T11:10:01;23.00;37.40
32753;DHT22;19121;52.428;10.816;2023-05-18T11:12:27;23.10;37.40
32753;DHT22;19121;52.428;10.816;2023-05-18T11:14:55;23.10;37.50
32753;DHT22;19121;52.428;10.816;2023-05-18T11:17:23;23.10;37.50
32753;DHT22;19121;52.428;10.816;2023-05-18T11:27:50;23.00;37.50
32753;DHT22;19121;52.428;10.816;2023-05-18T11:30:25;23.10;37.60
32753;DHT22;19121;52.428;10.816;2023-05-18T11:32:51;23.10;37.60
32753;DHT22;19121;52.428;10.816;2023-05-18T11:35:21;23.10;37.60
32753;DHT22;19121;52.428;10.816;2023-05-18T11:37:47;23.10;37.70
32753;DHT22;19121;52.428;10.816;2023-05-18T11:40:58;23.10;37.60
32753;DHT22;19121;52.428;10.816;2023-05-18T11:42:58;23.10;37.60
32753;DHT22;19121;52.428;10.816;2023-05-18T11:45:23;23.10;37.60
32753;DHT22;19121;52.428;10.816;2023-05-18T11:47:54;23.10;37.60
32753;DHT22;19121;52.428;10.816;2023-05-18T11:50:20;23.10;37.60
32753;DHT22;19121;52.428;10.816;2023-05-18T11:52:50;23.10;37.60
32753;DHT22;19121;52.428;10.816;2023-05-18T11:55:16;23.10;37.60
32753;DHT22;19121;52.428;10.816;2023-05-18T11:57:42;23.10;37.60
32753;DHT22;19121;52.428;10.816;2023-05-18T12:00:10;23.10;37.60
32753;DHT22;19121;52.428;10.816;2023-05-18T12:02:36;23.10;37.70
32753;DHT22;19121;52.428;10.816;2023-05-18T12:05:05;23.10;37.70
32753;DHT22;19121;52.428;10.816;2023-05-18T12:07:32;23.10;37.70
32753;DHT22;19121;52.428;10.816;2023-05-18T12:10:03;23.10;37.70
32753;DHT22;19121;52.428;10.816;2023-05-18T12:12:29;23.10;37.70
32753;DHT22;19121;52.428;10.816;2023-05-18T12:14:59;23.10;37.70
32753;DHT22;19121;52.428;10.816;2023-05-18T12:17:40;23.10;37.70
32753;DHT22;19121;52.428;10.816;2023-05-18T12:20:12;23.10;37.70
32753;DHT22;19121;52.428;10.816;2023-05-18T12:22:38;23.10;37.70
32753;DHT22;19121;52.428;10.816;2023-05-18T12:25:04;23.10;37.70
32753;DHT22;19121;52.428;10.816;2023-05-18T12:27:30;23.10;37.70
32753;DHT22;19121;52.428;10.816;2023-05-18T12:29:55;23.20;37.80
32753;DHT22;19121;52.428;10.816;2023-05-18T12:32:20;23.10;37.70
32753;DHT22;19121;52.428;10.816;2023-05-18T12:34:46;23.10;37.70
32753;DHT22;19121;52.428;10.816;2023-05-18T12:37:11;23.10;37.80
32753;DHT22;19121;52.428;10.816;2023-05-18T12:39:37;23.20;37.80
32753;DHT22;19121;52.428;10.816;2023-05-18T12:44:34;23.20;37.80
32753;DHT22;19121;52.428;10.816;2023-05-18T12:47:00;23.20;37.80
32753;DHT22;19121;52.428;10.816;2023-05-18T12:49:25;23.20;37.80
32753;DHT22;19121;52.428;10.816;2023-05-18T12:51:53;23.20;37.80
32753;DHT22;19121;52.428;10.816;2023-05-18T12:54:26;23.20;37.80
32753;DHT22;19121;52.428;10.816;2023-05-18T12:56:52;23.20;37.70
32753;DHT22;19121;52.428;10.816;2023-05-18T12:59:23;23.20;37.80
32753;DHT22;19121;52.428;10.816;2023-05-18T13:01:50;23.20;37.80
32753;DHT22;19121;52.428;10.816;2023-05-18T13:04:15;23.20;37.80
32753;DHT22;19121;52.428;10.816;2023-05-18T13:06:40;23.20;38.50
32753;DHT22;19121;52.428;10.816;2023-05-18T13:09:07;23.20;37.90
32753;DHT22;19121;52.428;10.816;2023-05-18T13:11:33;23.20;37.90
32753;DHT22;19121;52.428;10.816;2023-05-18T13:14:03;23.20;37.90
32753;DHT22;19121;52.428;10.816;2023-05-18T13:16:28;23.10;37.80
32753;DHT22;19121;52.428;10.816;2023-05-18T13:18:55;23.20;37.90
32753;DHT22;19121;52.428;10.816;2023-05-18T13:21:21;23.20;37.90
32753;DHT22;19121;52.428;10.816;2023-05-18T13:23:46;23.20;37.90
32753;DHT22;19121;52.428;10.816;2023-05-18T13:26:11;23.20;37.90
32753;DHT22;19121;52.428;10.816;2023-05-18T13:28:37;23.20;37.90
32753;DHT22;19121;52.428;10.816;2023-05-18T13:31:02;23.20;37.90
32753;DHT22;19121;52.428;10.816;2023-05-18T13:33:28;23.20;37.90
32753;DHT22;19121;52.428;10.816;2023-05-18T13:35:53;23.20;37.90
32753;DHT22;19121;52.428;10.816;2023-05-18T13:38:19;23.20;37.90
32753;DHT22;19121;52.428;10.816;2023-05-18T13:40:44;23.10;37.90
32753;DHT22;19121;52.428;10.816;2023-05-18T13:43:10;23.20;37.90
32753;DHT22;19121;52.428;10.816;2023-05-18T13:45:36;23.10;37.90
32753;DHT22;19121;52.428;10.816;2023-05-18T13:48:01;23.10;38.00
32753;DHT22;19121;52.428;10.816;2023-05-18T13:50:31;23.10;37.90
32753;DHT22;19121;52.428;10.816;2023-05-18T13:52:56;23.20;38.00
32753;DHT22;19121;52.428;10.816;2023-05-18T13:55:22;23.20;38.00
32753;DHT22;19121;52.428;10.816;2023-05-18T13:57:47;23.20;38.00
32753;DHT22;19121;52.428;10.816;2023-05-18T14:00:13;23.20;38.00
32753;DHT22;19121;52.428;10.816;2023-05-18T14:02:39;23.20;38.00
32753;DHT22;19121;52.428;10.816;2023-05-18T14:05:04;23.20;38.00
32753;DHT22;19121;52.428;10.816;2023-05-18T14:07:33;23.20;37.90
32753;DHT22;19121;52.428;10.816;2023-05-18T14:09:58;23.20;38.00
32753;DHT22;19121;52.428;10.816;2023-05-18T14:12:24;23.20;38.00
32753;DHT22;19121;52.428;10.816;2023-05-18T14:14:49;23.20;38.00
32753;DHT22;19121;52.428;10.816;2023-05-18T14:17:15;23.20;38.00
32753;DHT22;19121;52.428;10.816;2023-05-18T14:19:40;23.20;38.00
32753;DHT22;19121;52.428;10.816;2023-05-18T14:22:05;23.20;38.00
32753;DHT22;19121;52.428;10.816;2023-05-18T14:24:31;23.20;38.00
32753;DHT22;19121;52.428;10.816;2023-05-18T14:26:56;23.20;37.90
32753;DHT22;19121;52.428;10.816;2023-05-18T14:29:22;23.20;37.90
32753;DHT22;19121;52.428;10.816;2023-05-18T14:31:47;23.20;37.90
32753;DHT22;19121;52.428;10.816;2023-05-18T14:34:13;23.20;37.90
32753;DHT22;19121;52.428;10.816;2023-05-18T14:36:38;23.20;37.90
32753;DHT22;19121;52.428;10.816;2023-05-18T14:39:04;23.20;37.90
32753;DHT22;19121;52.428;10.816;2023-05-18T14:41:29;23.20;37.90
32753;DHT22;19121;52.428;10.816;2023-05-18T14:43:55;23.30;38.00
32753;DHT22;19121;52.428;10.816;2023-05-18T14:46:20;23.20;37.90
32753;DHT22;19121;52.428;10.816;2023-05-18T14:48:46;23.20;37.90
32753;DHT22;19121;52.428;10.816;2023-05-18T14:51:11;23.20;37.90
32753;DHT22;19121;52.428;10.816;2023-05-18T14:53:37;23.20;38.00
32753;DHT22;19121;52.428;10.816;2023-05-18T14:56:03;23.20;38.00
32753;DHT22;19121;52.428;10.816;2023-05-18T14:58:32;23.20;38.00
32753;DHT22;19121;52.428;10.816;2023-05-18T15:00:58;23.10;37.90
32753;DHT22;19121;52.428;10.816;2023-05-18T15:03:23;23.20;38.00
32753;DHT22;19121;52.428;10.816;2023-05-18T15:05:49;23.20;37.90
32753;DHT22;19121;52.428;10.816;2023-05-18T15:08:14;23.20;38.00
32753;DHT22;19121;52.428;10.816;2023-05-18T15:10:39;23.20;38.00
32753;DHT22;19121;52.428;10.816;2023-05-18T15:13:05;23.20;38.00
32753;DHT22;19121;52.428;10.816;2023-05-18T15:15:30;23.20;38.00
32753;DHT22;19121;52.428;10.816;2023-05-18T15:17:56;23.20;38.00
32753;DHT22;19121;52.428;10.816;2023-05-18T15:20:22;23.10;38.00
32753;DHT22;19121;52.428;10.816;2023-05-18T15:22:51;23.10;38.00
32753;DHT22;19121;52.428;10.816;2023-05-18T15:25:16;23.10;38.10
32753;DHT22;19121;52.428;10.816;2023-05-18T15:27:42;23.10;38.10
32753;DHT22;19121;52.428;10.816;2023-05-18T15:30:07;23.10;38.10
32753;DHT22;19121;52.428;10.816;2023-05-18T15:32:36;23.10;38.00